sensor_id;sensor_type;location;lat;lon;timestamp;P1;durP1;ratioP1;P2;durP2;ratioP2
20697;SDS011;10508;50.956;4.640;2024-03-23T00:53:03;10.10;;;2.97;;
20697;SDS011;10508;50.956;4.640;2024-03-23T00:55:29;8.10;;;3.28;;
20697;SDS011;10508;50.956;4.640;2024-03-23T00:57:55;8.65;;;2.78;;
20697;SDS011;10508;50.956;4.640;2024-03-23T01:00:20;13.85;;;3.00;;
20697;SDS011;10508;50.956;4.640;2024-03-23T01:02:46;8.57;;;2.63;;
20697;SDS011;10508;50.956;4.640;2024-03-23T01:05:12;11.63;;;2.60;;
20697;SDS011;10508;50.956;4.640;2024-03-23T01:07:37;14.15;;;2.55;;
20697;SDS011;10508;50.956;4.640;2024-03-23T01:10:03;7.15;;;2.60;;
20697;SDS011;10508;50.956;4.640;2024-03-23T01:12:29;16.35;;;2.97;;
20697;SDS011;10508;50.956;4.640;2024-03-23T01:14:55;10.95;;;2.50;;
20697;SDS011;10508;50.956;4.640;2024-03-23T01:17:21;15.32;;;2.75;;
20697;SDS011;10508;50.956;4.640;2024-03-23T01:19:47;16.38;;;3.10;;
20697;SDS011;10508;50.956;4.640;2024-03-23T01:22:13;12.80;;;3.35;;
20697;SDS011;10508;50.956;4.640;2024-03-23T01:24:39;14.73;;;3.30;;
20697;SDS011;10508;50.956;4.640;2024-03-23T01:27:05;12.88;;;2.88;;
20697;SDS011;10508;50.956;4.640;2024-03-23T01:29:31;9.27;;;2.80;;
20697;SDS011;10508;50.956;4.640;2024-03-23T01:31:57;12.80;;;3.08;;
20697;SDS011;10508;50.956;4.640;2024-03-23T01:34:23;16.15;;;3.55;;
20697;SDS011;10508;50.956;4.640;2024-03-23T01:36:50;13.68;;;3.38;;
20697;SDS011;10508;50.956;4.640;2024-03-23T01:39:16;12.52;;;3.63;;
20697;SDS011;10508;50.956;4.640;2024-03-23T01:41:41;10.73;;;3.50;;
20697;SDS011;10508;50.956;4.640;2024-03-23T01:44:08;15.43;;;3.40;;
20697;SDS011;10508;50.956;4.640;2024-03-23T01:46:37;14.20;;;3.58;;
20697;SDS011;10508;50.956;4.640;2024-03-23T01:49:06;10.13;;;3.78;;
20697;SDS011;10508;50.956;4.640;2024-03-23T01:51:33;15.13;;;4.05;;
20697;SDS011;10508;50.956;4.640;2024-03-23T01:54:01;11.48;;;2.97;;
20697;SDS011;10508;50.956;4.640;2024-03-23T01:56:29;14.80;;;3.50;;
20697;SDS011;10508;50.956;4.640;2024-03-23T01:58:55;8.50;;;3.63;;
20697;SDS011;10508;50.956;4.640;2024-03-23T02:01:21;18.33;;;3.97;;
20697;SDS011;10508;50.956;4.640;2024-03-23T02:03:47;11.15;;;4.22;;
20697;SDS011;10508;50.956;4.640;2024-03-23T02:06:12;12.10;;;3.75;;
20697;SDS011;10508;50.956;4.640;2024-03-23T02:08:38;14.10;;;4.13;;
20697;SDS011;10508;50.956;4.640;2024-03-23T02:11:04;10.35;;;2.60;;
20697;SDS011;10508;50.956;4.640;2024-03-23T02:13:30;7.22;;;3.08;;
20697;SDS011;10508;50.956;4.640;2024-03-23T02:15:57;12.70;;;3.83;;
20697;SDS011;10508;50.956;4.640;2024-03-23T02:18:23;9.02;;;2.95;;
20697;SDS011;10508;50.956;4.640;2024-03-23T02:20:49;6.80;;;2.97;;
20697;SDS011;10508;50.956;4.640;2024-03-23T02:23:15;15.95;;;3.40;;
20697;SDS011;10508;50.956;4.640;2024-03-23T02:25:41;11.55;;;3.22;;
20697;SDS011;10508;50.956;4.640;2024-03-23T02:28:07;10.65;;;3.38;;
20697;SDS011;10508;50.956;4.640;2024-03-23T02:30:33;10.25;;;3.45;;
20697;SDS011;10508;50.956;4.640;2024-03-23T02:32:59;12.05;;;3.42;;
20697;SDS011;10508;50.956;4.640;2024-03-23T02:35:25;13.75;;;4.07;;
20697;SDS011;10508;50.956;4.640;2024-03-23T02:37:50;7.45;;;2.70;;
20697;SDS011;10508;50.956;4.640;2024-03-23T02:40:16;12.48;;;3.38;;
20697;SDS011;10508;50.956;4.640;2024-03-23T02:42:43;10.10;;;3.22;;
20697;SDS011;10508;50.956;4.640;2024-03-23T02:45:09;6.47;;;2.75;;
20697;SDS011;10508;50.956;4.640;2024-03-23T02:47:35;12.70;;;4.57;;
20697;SDS011;10508;50.956;4.640;2024-03-23T02:50:00;12.48;;;4.30;;
20697;SDS011;10508;50.956;4.640;2024-03-23T02:52:26;14.15;;;4.03;;
20697;SDS011;10508;50.956;4.640;2024-03-23T02:54:52;15.13;;;4.82;;
20697;SDS011;10508;50.956;4.640;2024-03-23T02:57:18;14.45;;;5.68;;
20697;SDS011;10508;50.956;4.640;2024-03-23T02:59:44;12.65;;;4.22;;
20697;SDS011;10508;50.956;4.640;2024-03-23T03:02:09;17.42;;;5.10;;
20697;SDS011;10508;50.956;4.640;2024-03-23T03:04:36;18.13;;;5.60;;
20697;SDS011;10508;50.956;4.640;2024-03-23T03:07:02;15.23;;;5.07;;
20697;SDS011;10508;50.956;4.640;2024-03-23T03:09:27;18.90;;;5.30;;
20697;SDS011;10508;50.956;4.640;2024-03-23T03:11:53;14.73;;;5.80;;
20697;SDS011;10508;50.956;4.640;2024-03-23T03:14:19;20.65;;;5.22;;
20697;SDS011;10508;50.956;4.640;2024-03-23T03:16:45;18.85;;;5.53;;
20697;SDS011;10508;50.956;4.640;2024-03-23T03:19:10;17.52;;;5.30;;
20697;SDS011;10508;50.956;4.640;2024-03-23T03:21:36;21.65;;;6.00;;
20697;SDS011;10508;50.956;4.640;2024-03-23T03:24:02;13.52;;;5.82;;
20697;SDS011;10508;50.956;4.640;2024-03-23T03:26:29;21.20;;;5.90;;
20697;SDS011;10508;50.956;4.640;2024-03-23T03:28:55;21.67;;;5.25;;
20697;SDS011;10508;50.956;4.640;2024-03-23T03:31:21;18.85;;;5.80;;
20697;SDS011;10508;50.956;4.640;2024-03-23T03:33:46;15.73;;;5.03;;
20697;SDS011;10508;50.956;4.640;2024-03-23T03:36:12;19.63;;;4.93;;
20697;SDS011;10508;50.956;4.640;2024-03-23T03:38:38;14.32;;;5.00;;
20697;SDS011;10508;50.956;4.640;2024-03-23T03:41:04;21.70;;;5.03;;
20697;SDS011;10508;50.956;4.640;2024-03-23T03:43:31;23.48;;;6.20;;
20697;SDS011;10508;50.956;4.640;2024-03-23T03:45:57;18.00;;;5.30;;
20697;SDS011;10508;50.956;4.640;2024-03-23T03:48:24;14.60;;;5.32;;
20697;SDS011;10508;50.956;4.640;2024-03-23T03:50:51;25.45;;;5.25;;
20697;SDS011;10508;50.956;4.640;2024-03-23T03:53:17;20.60;;;5.32;;
20697;SDS011;10508;50.956;4.640;2024-03-23T03:55:43;16.63;;;5.50;;
20697;SDS011;10508;50.956;4.640;2024-03-23T03:58:09;16.30;;;5.30;;
20697;SDS011;10508;50.956;4.640;2024-03-23T04:00:35;21.60;;;5.43;;
20697;SDS011;10508;50.956;4.640;2024-03-23T04:03:02;19.08;;;5.13;;
20697;SDS011;10508;50.956;4.640;2024-03-23T04:05:28;17.35;;;5.70;;
20697;SDS011;10508;50.956;4.640;2024-03-23T04:07:54;23.33;;;4.47;;
20697;SDS011;10508;50.956;4.640;2024-03-23T04:10:20;15.95;;;4.82;;
20697;SDS011;10508;50.956;4.640;2024-03-23T04:12:46;13.25;;;4.90;;
20697;SDS011;10508;50.956;4.640;2024-03-23T04:15:13;15.13;;;5.30;;
20697;SDS011;10508;50.956;4.640;2024-03-23T04:17:39;15.05;;;4.88;;
20697;SDS011;10508;50.956;4.640;2024-03-23T04:20:07;16.55;;;4.40;;
20697;SDS011;10508;50.956;4.640;2024-03-23T04:22:36;13.88;;;5.03;;
20697;SDS011;10508;50.956;4.640;2024-03-23T04:25:02;16.95;;;5.13;;
20697;SDS011;10508;50.956;4.640;2024-03-23T04:27:32;19.73;;;5.25;;
20697;SDS011;10508;50.956;4.640;2024-03-23T04:29:58;15.07;;;4.95;;
20697;SDS011;10508;50.956;4.640;2024-03-23T04:32:29;16.60;;;5.38;;
20697;SDS011;10508;50.956;4.640;2024-03-23T04:34:55;11.90;;;4.78;;
20697;SDS011;10508;50.956;4.640;2024-03-23T04:37:21;18.20;;;6.28;;
20697;SDS011;10508;50.956;4.640;2024-03-23T04:39:48;18.70;;;4.97;;
20697;SDS011;10508;50.956;4.640;2024-03-23T04:42:16;18.25;;;5.25;;
20697;SDS011;10508;50.956;4.640;2024-03-23T04:44:43;13.95;;;5.25;;
20697;SDS011;10508;50.956;4.640;2024-03-23T04:47:10;20.38;;;6.13;;
20697;SDS011;10508;50.956;4.640;2024-03-23T04:49:36;14.63;;;4.65;;
20697;SDS011;10508;50.956;4.640;2024-03-23T04:52:03;21.33;;;5.97;;
20697;SDS011;10508;50.956;4.640;2024-03-23T04:54:29;18.67;;;5.20;;
20697;SDS011;10508;50.956;4.640;2024-03-23T04:56:57;20.50;;;5.72;;
20697;SDS011;10508;50.956;4.640;2024-03-23T04:59:23;16.10;;;6.53;;
20697;SDS011;10508;50.956;4.640;2024-03-23T05:01:49;21.60;;;6.38;;
20697;SDS011;10508;50.956;4.640;2024-03-23T05:04:15;16.35;;;5.28;;
20697;SDS011;10508;50.956;4.640;2024-03-23T05:06:41;17.25;;;5.82;;
20697;SDS011;10508;50.956;4.640;2024-03-23T05:09:08;16.77;;;5.20;;
20697;SDS011;10508;50.956;4.640;2024-03-23T05:11:39;13.30;;;5.45;;
20697;SDS011;10508;50.956;4.640;2024-03-23T05:14:06;15.80;;;5.30;;
20697;SDS011;10508;50.956;4.640;2024-03-23T05:16:32;15.88;;;5.38;;
20697;SDS011;10508;50.956;4.640;2024-03-23T05:18:59;17.60;;;5.07;;
20697;SDS011;10508;50.956;4.640;2024-03-23T05:21:25;15.98;;;5.82;;
20697;SDS011;10508;50.956;4.640;2024-03-23T05:23:53;23.75;;;5.40;;
20697;SDS011;10508;50.956;4.640;2024-03-23T05:26:19;17.90;;;4.82;;
20697;SDS011;10508;50.956;4.640;2024-03-23T05:28:45;19.05;;;4.65;;
20697;SDS011;10508;50.956;4.640;2024-03-23T05:31:11;15.20;;;4.15;;
20697;SDS011;10508;50.956;4.640;2024-03-23T05:33:37;14.20;;;4.60;;
20697;SDS011;10508;50.956;4.640;2024-03-23T05:36:04;15.32;;;4.28;;
20697;SDS011;10508;50.956;4.640;2024-03-23T05:38:30;16.60;;;4.30;;
20697;SDS011;10508;50.956;4.640;2024-03-23T05:41:01;15.45;;;4.15;;
20697;SDS011;10508;50.956;4.640;2024-03-23T05:43:29;16.73;;;4.22;;
20697;SDS011;10508;50.956;4.640;2024-03-23T05:45:55;9.85;;;3.83;;
20697;SDS011;10508;50.956;4.640;2024-03-23T05:48:21;11.70;;;4.03;;
20697;SDS011;10508;50.956;4.640;2024-03-23T05:50:50;23.67;;;4.43;;
20697;SDS011;10508;50.956;4.640;2024-03-23T05:53:16;10.40;;;3.53;;
20697;SDS011;10508;50.956;4.640;2024-03-23T05:55:43;15.82;;;5.13;;
20697;SDS011;10508;50.956;4.640;2024-03-23T05:58:09;20.73;;;3.72;;
20697;SDS011;10508;50.956;4.640;2024-03-23T06:00:35;11.90;;;3.70;;
20697;SDS011;10508;50.956;4.640;2024-03-23T06:03:01;14.25;;;3.72;;
20697;SDS011;10508;50.956;4.640;2024-03-23T06:05:27;20.42;;;4.20;;
20697;SDS011;10508;50.956;4.640;2024-03-23T06:07:53;22.42;;;4.18;;
20697;SDS011;10508;50.956;4.640;2024-03-23T06:10:18;15.75;;;3.55;;
20697;SDS011;10508;50.956;4.640;2024-03-23T06:12:47;12.13;;;3.83;;
20697;SDS011;10508;50.956;4.640;2024-03-23T06:15:14;13.35;;;4.00;;
20697;SDS011;10508;50.956;4.640;2024-03-23T06:17:40;18.95;;;3.80;;
20697;SDS011;10508;50.956;4.640;2024-03-23T06:20:06;20.08;;;4.35;;
20697;SDS011;10508;50.956;4.640;2024-03-23T06:22:32;27.05;;;5.38;;
20697;SDS011;10508;50.956;4.640;2024-03-23T06:24:59;10.95;;;4.35;;
20697;SDS011;10508;50.956;4.640;2024-03-23T06:27:25;19.48;;;4.57;;
20697;SDS011;10508;50.956;4.640;2024-03-23T06:29:51;10.70;;;4.10;;
20697;SDS011;10508;50.956;4.640;2024-03-23T06:32:17;15.27;;;4.75;;
20697;SDS011;10508;50.956;4.640;2024-03-23T06:34:43;13.80;;;3.72;;
20697;SDS011;10508;50.956;4.640;2024-03-23T06:37:09;15.38;;;4.75;;
20697;SDS011;10508;50.956;4.640;2024-03-23T06:39:36;22.27;;;4.47;;
20697;SDS011;10508;50.956;4.640;2024-03-23T06:42:02;15.15;;;3.67;;
20697;SDS011;10508;50.956;4.640;2024-03-23T06:44:28;12.43;;;3.60;;
20697;SDS011;10508;50.956;4.640;2024-03-23T06:46:54;7.05;;;3.65;;
20697;SDS011;10508;50.956;4.640;2024-03-23T06:49:20;12.48;;;3.38;;
20697;SDS011;10508;50.956;4.640;2024-03-23T06:51:46;13.38;;;3.50;;
20697;SDS011;10508;50.956;4.640;2024-03-23T06:54:11;13.75;;;3.25;;
20697;SDS011;10508;50.956;4.640;2024-03-23T06:56:37;14.23;;;4.13;;
20697;SDS011;10508;50.956;4.640;2024-03-23T06:59:03;10.43;;;2.85;;
20697;SDS011;10508;50.956;4.640;2024-03-23T07:01:29;12.98;;;2.65;;
20697;SDS011;10508;50.956;4.640;2024-03-23T07:03:55;12.55;;;2.72;;
20697;SDS011;10508;50.956;4.640;2024-03-23T07:06:20;12.30;;;3.03;;
20697;SDS011;10508;50.956;4.640;2024-03-23T07:08:47;11.57;;;2.65;;
20697;SDS011;10508;50.956;4.640;2024-03-23T07:11:19;15.55;;;2.90;;
20697;SDS011;10508;50.956;4.640;2024-03-23T07:13:51;13.73;;;3.10;;
20697;SDS011;10508;50.956;4.640;2024-03-23T07:16:21;11.75;;;2.08;;
20697;SDS011;10508;50.956;4.640;2024-03-23T07:19:05;14.82;;;3.17;;
20697;SDS011;10508;50.956;4.640;2024-03-23T07:21:31;20.35;;;3.00;;
20697;SDS011;10508;50.956;4.640;2024-03-23T07:23:56;11.65;;;2.42;;
20697;SDS011;10508;50.956;4.640;2024-03-23T07:26:22;12.60;;;2.33;;
20697;SDS011;10508;50.956;4.640;2024-03-23T07:28:48;7.03;;;1.85;;
20697;SDS011;10508;50.956;4.640;2024-03-23T07:31:14;14.45;;;2.60;;
20697;SDS011;10508;50.956;4.640;2024-03-23T07:33:46;7.93;;;1.80;;
20697;SDS011;10508;50.956;4.640;2024-03-23T07:36:14;13.02;;;2.45;;
20697;SDS011;10508;50.956;4.640;2024-03-23T07:38:40;10.38;;;1.98;;
20697;SDS011;10508;50.956;4.640;2024-03-23T07:41:07;9.20;;;2.17;;
20697;SDS011;10508;50.956;4.640;2024-03-23T07:43:34;9.23;;;2.00;;
20697;SDS011;10508;50.956;4.640;2024-03-23T07:46:01;7.80;;;1.58;;
20697;SDS011;10508;50.956;4.640;2024-03-23T07:48:28;12.70;;;2.20;;
20697;SDS011;10508;50.956;4.640;2024-03-23T07:53:22;5.25;;;1.38;;
20697;SDS011;10508;50.956;4.640;2024-03-23T07:55:55;8.30;;;1.38;;
20697;SDS011;10508;50.956;4.640;2024-03-23T07:58:22;9.65;;;2.30;;
20697;SDS011;10508;50.956;4.640;2024-03-23T08:00:48;13.20;;;2.75;;
20697;SDS011;10508;50.956;4.640;2024-03-23T08:03:14;12.40;;;2.83;;
20697;SDS011;10508;50.956;4.640;2024-03-23T08:05:39;19.08;;;4.68;;
20697;SDS011;10508;50.956;4.640;2024-03-23T08:08:17;22.30;;;7.38;;
20697;SDS011;10508;50.956;4.640;2024-03-23T08:10:49;28.77;;;8.93;;
20697;SDS011;10508;50.956;4.640;2024-03-23T08:13:16;17.88;;;6.80;;
20697;SDS011;10508;50.956;4.640;2024-03-23T08:15:42;20.13;;;6.80;;
20697;SDS011;10508;50.956;4.640;2024-03-23T08:18:09;13.65;;;5.50;;
20697;SDS011;10508;50.956;4.640;2024-03-23T08:20:36;15.55;;;2.97;;
20697;SDS011;10508;50.956;4.640;2024-03-23T08:23:02;14.65;;;2.30;;
20697;SDS011;10508;50.956;4.640;2024-03-23T08:25:30;5.00;;;1.83;;
20697;SDS011;10508;50.956;4.640;2024-03-23T08:27:57;14.15;;;2.63;;
20697;SDS011;10508;50.956;4.640;2024-03-23T08:30:23;17.70;;;3.10;;
20697;SDS011;10508;50.956;4.640;2024-03-23T08:32:48;9.98;;;2.38;;
20697;SDS011;10508;50.956;4.640;2024-03-23T08:35:14;22.08;;;6.60;;
20697;SDS011;10508;50.956;4.640;2024-03-23T08:37:40;22.85;;;8.57;;
20697;SDS011;10508;50.956;4.640;2024-03-23T08:40:06;21.30;;;7.25;;
20697;SDS011;10508;50.956;4.640;2024-03-23T08:42:33;13.93;;;5.32;;
20697;SDS011;10508;50.956;4.640;2024-03-23T08:44:59;15.75;;;2.55;;
20697;SDS011;10508;50.956;4.640;2024-03-23T08:47:25;7.95;;;2.15;;
20697;SDS011;10508;50.956;4.640;2024-03-23T08:49:51;7.68;;;2.67;;
20697;SDS011;10508;50.956;4.640;2024-03-23T08:52:17;14.38;;;4.43;;
20697;SDS011;10508;50.956;4.640;2024-03-23T08:54:43;11.43;;;2.63;;
20697;SDS011;10508;50.956;4.640;2024-03-23T08:57:09;12.52;;;2.33;;
20697;SDS011;10508;50.956;4.640;2024-03-23T08:59:34;11.43;;;1.80;;
20697;SDS011;10508;50.956;4.640;2024-03-23T09:02:00;6.90;;;1.75;;
20697;SDS011;10508;50.956;4.640;2024-03-23T09:04:26;9.63;;;1.98;;
20697;SDS011;10508;50.956;4.640;2024-03-23T09:06:52;8.45;;;1.95;;
20697;SDS011;10508;50.956;4.640;2024-03-23T09:09:17;8.07;;;2.35;;
20697;SDS011;10508;50.956;4.640;2024-03-23T09:11:45;11.48;;;2.55;;
20697;SDS011;10508;50.956;4.640;2024-03-23T09:14:11;4.60;;;1.55;;
20697;SDS011;10508;50.956;4.640;2024-03-23T09:16:36;11.85;;;2.88;;
20697;SDS011;10508;50.956;4.640;2024-03-23T09:19:02;5.45;;;1.83;;
20697;SDS011;10508;50.956;4.640;2024-03-23T09:21:28;8.45;;;1.90;;
20697;SDS011;10508;50.956;4.640;2024-03-23T09:23:54;16.70;;;4.93;;
20697;SDS011;10508;50.956;4.640;2024-03-23T09:26:19;24.60;;;9.55;;
20697;SDS011;10508;50.956;4.640;2024-03-23T09:28:47;7.93;;;2.78;;
20697;SDS011;10508;50.956;4.640;2024-03-23T09:31:14;12.48;;;3.45;;
20697;SDS011;10508;50.956;4.640;2024-03-23T09:33:40;13.30;;;6.28;;
20697;SDS011;10508;50.956;4.640;2024-03-23T09:36:06;14.77;;;5.00;;
20697;SDS011;10508;50.956;4.640;2024-03-23T09:38:33;25.00;;;13.27;;
20697;SDS011;10508;50.956;4.640;2024-03-23T09:40:59;24.73;;;13.02;;
20697;SDS011;10508;50.956;4.640;2024-03-23T09:43:25;10.20;;;2.30;;
20697;SDS011;10508;50.956;4.640;2024-03-23T09:45:51;10.10;;;1.90;;
20697;SDS011;10508;50.956;4.640;2024-03-23T09:48:18;12.95;;;2.85;;
20697;SDS011;10508;50.956;4.640;2024-03-23T09:50:45;10.45;;;2.42;;
20697;SDS011;10508;50.956;4.640;2024-03-23T09:53:11;11.38;;;2.78;;
20697;SDS011;10508;50.956;4.640;2024-03-23T09:55:42;5.95;;;1.65;;
20697;SDS011;10508;50.956;4.640;2024-03-23T09:58:12;10.02;;;1.88;;
20697;SDS011;10508;50.956;4.640;2024-03-23T10:00:38;3.97;;;1.23;;
20697;SDS011;10508;50.956;4.640;2024-03-23T10:03:04;10.38;;;1.98;;
20697;SDS011;10508;50.956;4.640;2024-03-23T10:05:31;7.28;;;2.28;;
20697;SDS011;10508;50.956;4.640;2024-03-23T10:10:38;10.00;;;2.65;;
20697;SDS011;10508;50.956;4.640;2024-03-23T10:13:05;8.80;;;2.03;;
20697;SDS011;10508;50.956;4.640;2024-03-23T10:15:30;9.32;;;2.05;;
20697;SDS011;10508;50.956;4.640;2024-03-23T10:18:06;10.80;;;2.10;;
20697;SDS011;10508;50.956;4.640;2024-03-23T10:20:43;8.40;;;2.00;;
20697;SDS011;10508;50.956;4.640;2024-03-23T10:23:16;6.13;;;1.85;;
20697;SDS011;10508;50.956;4.640;2024-03-23T10:25:42;4.43;;;1.73;;
20697;SDS011;10508;50.956;4.640;2024-03-23T10:28:08;12.70;;;2.35;;
20697;SDS011;10508;50.956;4.640;2024-03-23T10:30:34;11.20;;;3.35;;
20697;SDS011;10508;50.956;4.640;2024-03-23T10:33:07;10.00;;;2.20;;
20697;SDS011;10508;50.956;4.640;2024-03-23T10:35:33;18.55;;;2.50;;
20697;SDS011;10508;50.956;4.640;2024-03-23T10:38:00;8.07;;;2.70;;
20697;SDS011;10508;50.956;4.640;2024-03-23T10:40:25;10.02;;;2.05;;
20697;SDS011;10508;50.956;4.640;2024-03-23T10:42:52;6.20;;;1.90;;
20697;SDS011;10508;50.956;4.640;2024-03-23T10:45:22;4.53;;;1.63;;
20697;SDS011;10508;50.956;4.640;2024-03-23T10:47:48;5.65;;;1.88;;
20697;SDS011;10508;50.956;4.640;2024-03-23T10:50:14;8.55;;;2.05;;
20697;SDS011;10508;50.956;4.640;2024-03-23T10:52:40;9.45;;;2.10;;
20697;SDS011;10508;50.956;4.640;2024-03-23T10:55:10;6.93;;;1.98;;
20697;SDS011;10508;50.956;4.640;2024-03-23T10:57:40;7.75;;;1.90;;
20697;SDS011;10508;50.956;4.640;2024-03-23T11:00:10;9.55;;;2.53;;
20697;SDS011;10508;50.956;4.640;2024-03-23T11:02:37;3.88;;;1.30;;
20697;SDS011;10508;50.956;4.640;2024-03-23T11:05:27;4.45;;;1.35;;
20697;SDS011;10508;50.956;4.640;2024-03-23T11:07:52;4.57;;;1.35;;
20697;SDS011;10508;50.956;4.640;2024-03-23T11:10:24;3.63;;;1.40;;
20697;SDS011;10508;50.956;4.640;2024-03-23T11:12:58;7.28;;;1.33;;
20697;SDS011;10508;50.956;4.640;2024-03-23T11:15:25;3.17;;;1.52;;
20697;SDS011;10508;50.956;4.640;2024-03-23T11:18:07;7.57;;;2.22;;
20697;SDS011;10508;50.956;4.640;2024-03-23T11:20:36;5.63;;;1.52;;
20697;SDS011;10508;50.956;4.640;2024-03-23T11:23:02;5.50;;;1.50;;
20697;SDS011;10508;50.956;4.640;2024-03-23T11:25:29;10.40;;;2.33;;
20697;SDS011;10508;50.956;4.640;2024-03-23T11:27:56;6.95;;;2.35;;
20697;SDS011;10508;50.956;4.640;2024-03-23T11:30:24;4.60;;;2.25;;
20697;SDS011;10508;50.956;4.640;2024-03-23T11:32:51;9.15;;;2.75;;
20697;SDS011;10508;50.956;4.640;2024-03-23T11:38:11;7.78;;;2.40;;
20697;SDS011;10508;50.956;4.640;2024-03-23T11:43:06;6.43;;;2.78;;
20697;SDS011;10508;50.956;4.640;2024-03-23T11:45:34;7.93;;;2.45;;
20697;SDS011;10508;50.956;4.640;2024-03-23T11:50:30;4.35;;;1.92;;
20697;SDS011;10508;50.956;4.640;2024-03-23T11:55:51;8.02;;;1.60;;
20697;SDS011;10508;50.956;4.640;2024-03-23T11:58:21;7.35;;;2.25;;
20697;SDS011;10508;50.956;4.640;2024-03-23T12:00:57;6.25;;;1.30;;
20697;SDS011;10508;50.956;4.640;2024-03-23T12:03:24;4.95;;;1.10;;
20697;SDS011;10508;50.956;4.640;2024-03-23T12:05:54;5.90;;;0.88;;
20697;SDS011;10508;50.956;4.640;2024-03-23T12:08:30;5.90;;;1.20;;
20697;SDS011;10508;50.956;4.640;2024-03-23T12:13:32;1.73;;;0.60;;
20697;SDS011;10508;50.956;4.640;2024-03-23T12:18:55;3.78;;;0.80;;
20697;SDS011;10508;50.956;4.640;2024-03-23T12:21:31;3.70;;;0.98;;
20697;SDS011;10508;50.956;4.640;2024-03-23T12:23:57;4.43;;;1.30;;
20697;SDS011;10508;50.956;4.640;2024-03-23T12:26:23;8.32;;;1.00;;
20697;SDS011;10508;50.956;4.640;2024-03-23T12:28:49;5.57;;;1.20;;
20697;SDS011;10508;50.956;4.640;2024-03-23T12:31:15;8.07;;;2.10;;
20697;SDS011;10508;50.956;4.640;2024-03-23T12:33:42;14.77;;;4.30;;
20697;SDS011;10508;50.956;4.640;2024-03-23T12:36:09;6.65;;;1.50;;
20697;SDS011;10508;50.956;4.640;2024-03-23T12:38:36;8.23;;;2.03;;
20697;SDS011;10508;50.956;4.640;2024-03-23T12:41:02;6.95;;;1.00;;
20697;SDS011;10508;50.956;4.640;2024-03-23T12:43:30;4.03;;;0.75;;
20697;SDS011;10508;50.956;4.640;2024-03-23T12:45:56;4.82;;;0.55;;
20697;SDS011;10508;50.956;4.640;2024-03-23T12:48:22;2.30;;;0.60;;
20697;SDS011;10508;50.956;4.640;2024-03-23T12:50:48;2.88;;;0.70;;
20697;SDS011;10508;50.956;4.640;2024-03-23T12:53:15;3.35;;;0.60;;
20697;SDS011;10508;50.956;4.640;2024-03-23T12:55:42;7.38;;;0.80;;
20697;SDS011;10508;50.956;4.640;2024-03-23T12:58:07;7.20;;;1.02;;
20697;SDS011;10508;50.956;4.640;2024-03-23T13:00:33;1.98;;;0.50;;
20697;SDS011;10508;50.956;4.640;2024-03-23T13:03:01;6.43;;;0.90;;
20697;SDS011;10508;50.956;4.640;2024-03-23T13:05:28;4.45;;;0.82;;
20697;SDS011;10508;50.956;4.640;2024-03-23T13:07:53;4.13;;;1.00;;
20697;SDS011;10508;50.956;4.640;2024-03-23T13:10:19;8.70;;;1.23;;
20697;SDS011;10508;50.956;4.640;2024-03-23T13:12:45;2.70;;;0.63;;
20697;SDS011;10508;50.956;4.640;2024-03-23T13:15:11;2.42;;;0.50;;
20697;SDS011;10508;50.956;4.640;2024-03-23T13:17:36;3.20;;;0.85;;
20697;SDS011;10508;50.956;4.640;2024-03-23T13:20:03;5.75;;;1.15;;
20697;SDS011;10508;50.956;4.640;2024-03-23T13:22:29;8.10;;;1.30;;
20697;SDS011;10508;50.956;4.640;2024-03-23T13:24:55;5.65;;;0.90;;
20697;SDS011;10508;50.956;4.640;2024-03-23T13:27:21;6.43;;;0.90;;
20697;SDS011;10508;50.956;4.640;2024-03-23T13:29:47;5.63;;;1.23;;
20697;SDS011;10508;50.956;4.640;2024-03-23T13:32:13;3.55;;;0.90;;
20697;SDS011;10508;50.956;4.640;2024-03-23T13:34:40;5.28;;;1.27;;
20697;SDS011;10508;50.956;4.640;2024-03-23T13:37:06;9.07;;;1.52;;
20697;SDS011;10508;50.956;4.640;2024-03-23T13:39:32;5.70;;;1.20;;
20697;SDS011;10508;50.956;4.640;2024-03-23T13:41:58;9.20;;;1.27;;
20697;SDS011;10508;50.956;4.640;2024-03-23T13:44:24;5.57;;;1.27;;
20697;SDS011;10508;50.956;4.640;2024-03-23T13:46:51;4.38;;;1.10;;
20697;SDS011;10508;50.956;4.640;2024-03-23T13:49:21;7.38;;;1.60;;
20697;SDS011;10508;50.956;4.640;2024-03-23T13:51:53;4.53;;;0.70;;
20697;SDS011;10508;50.956;4.640;2024-03-23T13:54:20;3.90;;;1.23;;
20697;SDS011;10508;50.956;4.640;2024-03-23T13:56:50;5.05;;;1.10;;
20697;SDS011;10508;50.956;4.640;2024-03-23T13:59:16;3.55;;;1.05;;
20697;SDS011;10508;50.956;4.640;2024-03-23T14:01:43;7.40;;;1.13;;
20697;SDS011;10508;50.956;4.640;2024-03-23T14:04:10;9.98;;;1.35;;
20697;SDS011;10508;50.956;4.640;2024-03-23T14:06:45;2.65;;;0.93;;
20697;SDS011;10508;50.956;4.640;2024-03-23T14:09:14;3.20;;;0.80;;
20697;SDS011;10508;50.956;4.640;2024-03-23T14:11:45;2.92;;;0.77;;
20697;SDS011;10508;50.956;4.640;2024-03-23T14:14:11;3.45;;;0.73;;
20697;SDS011;10508;50.956;4.640;2024-03-23T14:16:37;8.13;;;1.08;;
20697;SDS011;10508;50.956;4.640;2024-03-23T14:19:03;4.15;;;1.00;;
20697;SDS011;10508;50.956;4.640;2024-03-23T14:21:32;2.85;;;0.93;;
20697;SDS011;10508;50.956;4.640;2024-03-23T14:23:59;8.52;;;0.90;;
20697;SDS011;10508;50.956;4.640;2024-03-23T14:26:26;7.28;;;1.33;;
20697;SDS011;10508;50.956;4.640;2024-03-23T14:28:52;2.85;;;1.00;;
20697;SDS011;10508;50.956;4.640;2024-03-23T14:31:17;5.55;;;1.35;;
20697;SDS011;10508;50.956;4.640;2024-03-23T14:33:43;9.18;;;1.55;;
20697;SDS011;10508;50.956;4.640;2024-03-23T14:36:15;9.13;;;1.80;;
20697;SDS011;10508;50.956;4.640;2024-03-23T14:38:42;4.40;;;1.17;;
20697;SDS011;10508;50.956;4.640;2024-03-23T14:41:18;4.82;;;1.40;;
20697;SDS011;10508;50.956;4.640;2024-03-23T14:43:43;4.97;;;1.70;;
20697;SDS011;10508;50.956;4.640;2024-03-23T14:46:12;7.63;;;1.38;;
20697;SDS011;10508;50.956;4.640;2024-03-23T14:48:39;5.53;;;1.60;;
20697;SDS011;10508;50.956;4.640;2024-03-23T14:51:06;5.65;;;1.30;;
20697;SDS011;10508;50.956;4.640;2024-03-23T14:53:37;7.55;;;1.48;;
20697;SDS011;10508;50.956;4.640;2024-03-23T14:56:05;4.10;;;1.00;;
20697;SDS011;10508;50.956;4.640;2024-03-23T14:58:31;4.53;;;1.27;;
20697;SDS011;10508;50.956;4.640;2024-03-23T15:01:06;12.20;;;1.83;;
20697;SDS011;10508;50.956;4.640;2024-03-23T15:03:38;3.58;;;1.30;;
20697;SDS011;10508;50.956;4.640;2024-03-23T15:06:05;4.07;;;1.35;;
20697;SDS011;10508;50.956;4.640;2024-03-23T15:08:31;6.10;;;1.50;;
20697;SDS011;10508;50.956;4.640;2024-03-23T15:11:00;7.07;;;1.20;;
20697;SDS011;10508;50.956;4.640;2024-03-23T15:13:31;6.18;;;1.25;;
20697;SDS011;10508;50.956;4.640;2024-03-23T15:15:58;6.43;;;1.50;;
20697;SDS011;10508;50.956;4.640;2024-03-23T15:18:24;9.88;;;1.55;;
20697;SDS011;10508;50.956;4.640;2024-03-23T15:20:54;6.07;;;1.60;;
20697;SDS011;10508;50.956;4.640;2024-03-23T15:23:20;7.65;;;1.20;;
20697;SDS011;10508;50.956;4.640;2024-03-23T15:25:53;4.60;;;1.58;;
20697;SDS011;10508;50.956;4.640;2024-03-23T15:28:19;8.23;;;1.98;;
20697;SDS011;10508;50.956;4.640;2024-03-23T15:30:45;7.75;;;1.33;;
20697;SDS011;10508;50.956;4.640;2024-03-23T15:33:11;6.60;;;1.33;;
20697;SDS011;10508;50.956;4.640;2024-03-23T15:35:37;4.95;;;1.13;;
20697;SDS011;10508;50.956;4.640;2024-03-23T15:38:03;4.07;;;1.15;;
20697;SDS011;10508;50.956;4.640;2024-03-23T15:40:30;7.10;;;1.20;;
20697;SDS011;10508;50.956;4.640;2024-03-23T15:42:56;5.57;;;1.00;;
20697;SDS011;10508;50.956;4.640;2024-03-23T15:45:22;5.15;;;0.80;;
20697;SDS011;10508;50.956;4.640;2024-03-23T15:47:48;3.63;;;1.10;;
20697;SDS011;10508;50.956;4.640;2024-03-23T15:50:14;4.07;;;1.50;;
20697;SDS011;10508;50.956;4.640;2024-03-23T15:52:41;6.43;;;2.00;;